createdAt,value
2023-01-22T00:02:18.294Z,101358.82
2023-01-22T00:04:47.616Z,101355.52
2023-01-22T00:07:16.809Z,101359.57
2023-01-22T00:09:46.126Z,101355.87
2023-01-22T00:12:15.111Z,101361.46
2023-01-22T00:14:46.377Z,101366.41
2023-01-22T00:17:15.382Z,101366.35
2023-01-22T00:19:44.457Z,101369.48
2023-01-22T00:22:13.350Z,101369.50
2023-01-22T00:24:42.404Z,101368.89
2023-01-22T00:27:11.606Z,101370.50
2023-01-22T00:29:41.668Z,101371.97
2023-01-22T00:32:10.691Z,101372.65
2023-01-22T00:34:38.935Z,101376.05
2023-01-22T00:37:07.682Z,101381.06
2023-01-22T00:39:36.597Z,101380.23
2023-01-22T00:42:05.114Z,101374.48
2023-01-22T00:44:33.996Z,101374.31
2023-01-22T00:47:02.662Z,101372.77
2023-01-22T00:49:31.349Z,101375.14
2023-01-22T00:52:00.272Z,101376.86
2023-01-22T00:54:31.792Z,101373.38
2023-01-22T00:57:01.019Z,101374.23
2023-01-22T00:59:30.038Z,101373.75
2023-01-22T04:02:12.332Z,101452.92
2023-01-22T04:04:50.824Z,101457.70
2023-01-22T04:07:20.165Z,101462.66
2023-01-22T04:09:48.671Z,101463.75
2023-01-22T04:12:17.938Z,101459.05
2023-01-22T04:14:46.485Z,101460.86
2023-01-22T04:17:15.440Z,101461.06
2023-01-22T04:20:04.840Z,101462.34
2023-01-22T04:22:48.428Z,101462.55
2023-01-22T04:25:18.066Z,101462.31
2023-01-22T04:27:47.029Z,101460.86
2023-01-22T04:30:19.645Z,101462.20
2023-01-22T04:32:51.978Z,101466.88
2023-01-22T04:35:40.430Z,101464.38
2023-01-22T04:38:13.737Z,101464.07
2023-01-22T04:40:43.572Z,101467.06
2023-01-22T04:43:13.106Z,101475.23
2023-01-22T04:45:42.180Z,101479.20
2023-01-22T04:48:12.776Z,101480.94
2023-01-22T04:50:46.316Z,101483.46
2023-01-22T04:53:15.930Z,101487.87
2023-01-22T04:55:46.206Z,101486.95
2023-01-22T04:58:16.338Z,101488.25
2023-01-22T05:00:45.370Z,101491.87
2023-01-22T05:03:14.631Z,101497.14
2023-01-22T05:05:44.242Z,101499.25
2023-01-22T05:08:13.097Z,101502.61
2023-01-22T05:10:41.656Z,101499.09
2023-01-22T05:13:12.323Z,101499.38
2023-01-22T05:15:41.002Z,101499.23
2023-01-22T05:18:11.930Z,101499.06
2023-01-22T05:20:46.635Z,101500.00
2023-01-22T05:23:15.436Z,101498.00
2023-01-22T05:25:49.445Z,101501.67
2023-01-22T05:28:22.330Z,101503.21
2023-01-22T05:31:13.869Z,101505.55
2023-01-22T05:34:01.567Z,101508.59
2023-01-22T05:36:30.947Z,101512.34
2023-01-22T05:39:04.654Z,101516.13
2023-01-22T05:41:33.489Z,101516.15
2023-01-22T05:44:06.164Z,101518.81
2023-01-22T05:46:34.466Z,101526.52
2023-01-22T05:49:21.118Z,101526.06
2023-01-22T05:51:50.753Z,101527.31
2023-01-22T05:54:19.933Z,101525.47
2023-01-22T05:56:50.594Z,101532.14
2023-01-22T05:59:19.738Z,101533.02
2023-01-22T06:01:57.392Z,101538.84
2023-01-22T06:04:26.468Z,101537.73
2023-01-22T06:06:55.227Z,101542.02
2023-01-22T06:09:24.733Z,101545.44
2023-01-22T06:11:53.535Z,101549.70
2023-01-22T06:14:21.871Z,101551.69
2023-01-22T06:16:50.951Z,101553.91
2023-01-22T06:19:38.444Z,101558.23
2023-01-22T06:22:07.129Z,101566.84
2023-01-22T06:24:40.769Z,101568.45
2023-01-22T06:27:10.067Z,101569.77
2023-01-22T06:29:43.061Z,101571.55
2023-01-22T06:32:11.780Z,101577.58
2023-01-22T06:34:42.354Z,101577.69
2023-01-22T06:37:10.747Z,101584.59
2023-01-22T06:39:39.988Z,101583.64
2023-01-22T06:42:31.101Z,101590.88
2023-01-22T06:44:59.428Z,101596.13
2023-01-22T06:47:29.587Z,101600.23
2023-01-22T06:49:58.235Z,101601.38
2023-01-22T06:52:27.844Z,101602.65
2023-01-22T06:54:55.854Z,101604.73
2023-01-22T06:57:25.867Z,101605.58
2023-01-22T06:59:54.829Z,101605.58
2023-01-22T07:02:23.670Z,101609.82
2023-01-22T07:04:52.258Z,101608.86
2023-01-22T07:07:20.855Z,101612.34
2023-01-22T07:09:56.128Z,101608.85
2023-01-22T07:12:25.344Z,101610.54
2023-01-22T07:14:54.036Z,101614.60
2023-01-22T07:17:23.194Z,101617.56
2023-01-22T07:19:51.858Z,101620.38
2023-01-22T07:22:20.723Z,101623.75
2023-01-22T07:24:48.805Z,101625.33
2023-01-22T07:27:18.718Z,101629.40
2023-01-22T07:29:48.270Z,101637.36
2023-01-22T07:32:19.480Z,101639.92
2023-01-22T07:34:48.489Z,101647.39
2023-01-22T07:37:17.418Z,101649.04
2023-01-22T07:39:48.852Z,101654.15
2023-01-22T07:42:18.103Z,101655.62
2023-01-22T07:44:47.719Z,101659.81
2023-01-22T07:47:16.702Z,101658.86
2023-01-22T07:49:45.560Z,101662.40
2023-01-22T07:52:14.572Z,101662.80
2023-01-22T07:54:43.517Z,101662.96
2023-01-22T07:57:15.587Z,101662.05
2023-01-22T07:59:48.457Z,101662.05
2023-01-22T08:02:17.206Z,101662.80
2023-01-22T08:04:46.506Z,101661.40
2023-01-22T08:07:20.626Z,101660.67
2023-01-22T08:09:48.874Z,101670.88
2023-01-22T08:12:17.655Z,101671.27
2023-01-22T08:14:45.948Z,101675.21
2023-01-22T08:17:14.623Z,101676.23
2023-01-22T08:19:42.983Z,101677.16
2023-01-22T08:22:11.746Z,101682.63
2023-01-22T08:24:39.995Z,101686.48
2023-01-22T08:27:08.644Z,101685.43
2023-01-22T08:29:37.202Z,101688.75
2023-01-22T08:32:07.452Z,101687.63
2023-01-22T08:34:36.566Z,101687.77
2023-01-22T08:37:05.284Z,101688.02
2023-01-22T08:39:34.079Z,101686.34
2023-01-22T08:42:06.092Z,101691.55
2023-01-22T08:44:34.675Z,101690.14
2023-01-22T08:47:03.979Z,101691.21
2023-01-22T08:49:33.054Z,101690.27
2023-01-22T08:52:01.993Z,101697.13
2023-01-22T08:54:30.773Z,101700.27
2023-01-22T08:57:02.780Z,101703.89
2023-01-22T08:59:31.699Z,101703.13
2023-01-22T09:02:01.411Z,101711.18
2023-01-22T09:04:30.379Z,101712.58
2023-01-22T09:07:01.291Z,101716.91
2023-01-22T09:09:30.379Z,101719.67
2023-01-22T09:11:59.212Z,101722.66
2023-01-22T09:14:30.905Z,101725.68
2023-01-22T09:17:00.044Z,101730.33
2023-01-22T09:19:29.135Z,101730.98
2023-01-22T09:21:58.131Z,101731.27
2023-01-22T09:24:27.173Z,101732.54
2023-01-22T09:26:55.983Z,101733.61
2023-01-22T09:29:24.863Z,101731.84
2023-01-22T09:31:54.462Z,101730.69
2023-01-22T09:34:23.882Z,101730.56
2023-01-22T09:36:53.154Z,101731.55
2023-01-22T09:39:25.713Z,101732.85
2023-01-22T09:42:01.700Z,101735.11
2023-01-22T09:44:40.287Z,101733.34
2023-01-22T09:47:37.160Z,101735.16
2023-01-22T09:50:18.073Z,101737.13
2023-01-22T09:52:50.144Z,101739.15
2023-01-22T09:55:23.887Z,101745.81
2023-01-22T09:57:55.415Z,101748.15
2023-01-22T10:00:41.899Z,101753.78
2023-01-22T10:03:33.770Z,101751.91
2023-01-22T10:06:12.673Z,101753.55
2023-01-22T10:08:54.318Z,101752.91
2023-01-22T10:11:23.491Z,101751.14
2023-01-22T10:13:58.131Z,101753.08
2023-01-22T10:16:27.225Z,101755.02
2023-01-22T10:19:18.340Z,101757.55
2023-01-22T10:22:12.288Z,101752.91
2023-01-22T10:24:40.963Z,101751.75
2023-01-22T10:27:16.677Z,101752.19
2023-01-22T10:29:59.060Z,101752.43
2023-01-22T10:32:30.262Z,101756.61
2023-01-22T10:35:02.265Z,101756.02
2023-01-22T10:37:31.474Z,101755.78
2023-01-22T10:40:01.169Z,101755.69
2023-01-22T10:42:30.899Z,101749.89
2023-01-22T10:45:20.526Z,101749.91
2023-01-22T10:47:48.957Z,101757.36
2023-01-22T10:50:20.170Z,101760.76
2023-01-22T10:52:52.604Z,101757.46
2023-01-22T10:55:29.159Z,101753.66
2023-01-22T10:58:15.125Z,101758.61
2023-01-22T11:00:51.897Z,101759.70
2023-01-22T11:03:28.164Z,101759.54
2023-01-22T11:06:02.310Z,101755.35
2023-01-22T11:08:41.877Z,101753.60
2023-01-22T11:11:15.485Z,101748.61
2023-01-22T11:13:44.127Z,101746.80
2023-01-22T11:16:19.788Z,101743.08
2023-01-22T11:19:36.005Z,101739.17
2023-01-22T11:22:15.660Z,101740.55
2023-01-22T11:24:48.019Z,101743.92
2023-01-22T11:27:52.966Z,101746.35
2023-01-22T11:30:50.040Z,101746.33
2023-01-22T11:33:27.957Z,101743.73
2023-01-22T11:36:39.109Z,101745.65
2023-01-22T11:39:13.378Z,101744.11
2023-01-22T11:42:09.081Z,101743.14
2023-01-22T11:44:53.539Z,101742.25
2023-01-22T11:47:44.058Z,101741.29
2023-01-22T11:50:39.664Z,101741.98
2023-01-22T11:53:42.565Z,101741.45
2023-01-22T11:56:38.150Z,101739.34
2023-01-22T11:59:24.854Z,101743.29
2023-01-22T12:01:59.499Z,101745.16
2023-01-22T12:04:30.577Z,101750.89
2023-01-22T12:07:09.834Z,101748.90
2023-01-22T12:09:59.937Z,101751.85
2023-01-22T12:12:53.740Z,101751.33
2023-01-22T12:16:00.676Z,101747.08
2023-01-22T12:18:54.094Z,101749.02
2023-01-22T12:21:40.207Z,101747.98
2023-01-22T12:24:21.439Z,101755.81
2023-01-22T12:27:12.325Z,101752.09
2023-01-22T12:29:46.253Z,101749.17
2023-01-22T12:32:19.255Z,101749.78
2023-01-22T12:35:02.689Z,101751.68
2023-01-22T12:37:58.459Z,101750.80
2023-01-22T12:40:52.862Z,101746.71
2023-01-22T12:43:34.406Z,101745.50
2023-01-22T12:46:18.876Z,101743.05
2023-01-22T12:49:00.899Z,101743.88
2023-01-22T12:51:41.150Z,101740.52
2023-01-22T12:54:33.053Z,101744.04
2023-01-22T12:57:17.498Z,101749.31
2023-01-22T12:59:52.259Z,101746.38
2023-01-22T13:02:27.352Z,101747.73
2023-01-22T13:05:11.017Z,101746.66
2023-01-22T13:07:43.763Z,101754.98
2023-01-22T13:10:30.310Z,101759.30
2023-01-22T13:13:20.937Z,101758.79
2023-01-22T13:16:05.204Z,101766.70
2023-01-22T13:18:42.426Z,101769.86
2023-01-22T13:21:13.898Z,101771.67
2023-01-22T13:23:46.484Z,101781.59
2023-01-22T13:26:25.795Z,101788.59
2023-01-22T13:29:05.011Z,101790.16
2023-01-22T13:31:35.159Z,101794.95
2023-01-22T13:34:11.417Z,101794.52
2023-01-22T13:36:46.232Z,101793.52
2023-01-22T13:39:26.462Z,101790.64
2023-01-22T13:41:58.400Z,101789.98
2023-01-22T13:44:49.168Z,101793.09
2023-01-22T13:47:35.446Z,101790.03
2023-01-22T13:50:04.442Z,101788.55
2023-01-22T13:52:33.752Z,101791.95
2023-01-22T13:55:13.292Z,101793.89
2023-01-22T13:57:55.603Z,101794.73
2023-01-22T14:00:37.348Z,101800.61
2023-01-22T14:03:21.916Z,101797.45
2023-01-22T14:05:50.484Z,101797.19
2023-01-22T14:08:19.010Z,101799.33
2023-01-22T14:10:57.791Z,101796.88
2023-01-22T14:13:26.733Z,101794.84
2023-01-22T14:15:59.899Z,101794.61
2023-01-22T14:18:32.014Z,101798.36
2023-01-22T14:21:00.294Z,101798.87
2023-01-22T14:23:29.638Z,101802.81
2023-01-22T14:26:03.866Z,101803.67
2023-01-22T14:28:34.424Z,101803.00
2023-01-22T14:31:03.113Z,101802.23
2023-01-22T14:33:34.470Z,101808.20
2023-01-22T14:36:03.441Z,101813.11
2023-01-22T14:38:32.429Z,101820.22
2023-01-22T14:41:04.395Z,101820.86
2023-01-22T14:43:33.246Z,101826.70
2023-01-22T14:46:02.553Z,101826.11
2023-01-22T14:48:31.584Z,101829.49
2023-01-22T14:51:01.071Z,101831.06
2023-01-22T14:53:31.695Z,101835.44
2023-01-22T14:55:59.923Z,101837.77
2023-01-22T14:58:28.236Z,101836.29
2023-01-22T15:00:56.779Z,101836.67
2023-01-22T15:03:25.126Z,101836.66
2023-01-22T15:05:56.836Z,101837.92
2023-01-22T15:08:25.646Z,101842.77
2023-01-22T15:10:53.802Z,101845.48
2023-01-22T15:13:22.160Z,101848.16
2023-01-22T15:15:50.712Z,101847.65
2023-01-22T15:18:19.175Z,101855.41
2023-01-22T15:20:48.216Z,101856.19
2023-01-22T15:23:16.609Z,101858.07
2023-01-22T15:25:44.998Z,101860.83
2023-01-22T15:28:13.538Z,101863.25
2023-01-22T15:30:46.234Z,101865.88
2023-01-22T15:33:14.279Z,101865.14
2023-01-22T15:35:42.751Z,101868.73
2023-01-22T15:38:10.986Z,101875.02
2023-01-22T15:40:39.339Z,101876.39
2023-01-22T15:43:07.533Z,101880.48
2023-01-22T15:45:36.392Z,101879.92
2023-01-22T15:48:04.534Z,101882.79
2023-01-22T15:50:33.365Z,101882.78
2023-01-22T15:53:02.577Z,101881.38
2023-01-22T15:55:30.605Z,101880.81
2023-01-22T15:58:00.446Z,101889.28
2023-01-22T16:00:28.808Z,101889.98
2023-01-22T16:02:56.950Z,101893.22
2023-01-22T16:05:25.710Z,101894.10
2023-01-22T16:07:54.084Z,101896.68
2023-01-22T16:10:22.565Z,101893.73
2023-01-22T16:12:50.912Z,101897.38
2023-01-22T16:15:19.041Z,101895.55
2023-01-22T16:17:47.173Z,101896.19
2023-01-22T16:20:15.763Z,101896.66
2023-01-22T16:22:46.466Z,101896.14
2023-01-22T16:25:14.867Z,101894.84
2023-01-22T16:27:43.197Z,101896.33
2023-01-22T16:30:13.152Z,101899.13
2023-01-22T16:32:42.799Z,101897.14
2023-01-22T16:35:12.346Z,101901.51
2023-01-22T16:37:45.088Z,101899.28
2023-01-22T16:40:16.526Z,101899.60
2023-01-22T16:43:01.946Z,101903.69
2023-01-22T16:45:31.286Z,101905.00
2023-01-22T16:48:00.168Z,101906.45
2023-01-22T16:50:29.754Z,101910.50
2023-01-22T16:52:59.131Z,101904.73
2023-01-22T16:55:27.662Z,101909.42
2023-01-22T16:57:59.067Z,101908.91
2023-01-22T17:00:27.883Z,101914.30
2023-01-22T17:02:57.010Z,101915.30
2023-01-22T17:05:27.061Z,101916.75
2023-01-22T17:07:55.581Z,101915.80
2023-01-22T17:10:24.217Z,101916.88
2023-01-22T17:12:52.503Z,101920.52
2023-01-22T17:15:21.194Z,101925.11
2023-01-22T17:17:49.342Z,101929.63
2023-01-22T17:20:19.644Z,101930.40
2023-01-22T17:22:49.694Z,101932.59
2023-01-22T17:25:18.039Z,101931.60
2023-01-22T17:27:46.312Z,101934.73
2023-01-22T17:30:15.710Z,101936.92
2023-01-22T17:32:44.402Z,101937.45
2023-01-22T17:35:13.654Z,101944.48
2023-01-22T17:37:42.340Z,101952.57
2023-01-22T17:40:11.294Z,101952.31
2023-01-22T17:42:39.479Z,101955.48
2023-01-22T17:45:08.872Z,101954.05
2023-01-22T17:47:37.251Z,101960.24
2023-01-22T17:50:06.811Z,101967.19
2023-01-22T17:52:35.023Z,101969.57
2023-01-22T17:55:03.055Z,101968.23
2023-01-22T17:57:31.614Z,101970.80
2023-01-22T17:59:59.714Z,101968.66
2023-01-22T18:02:31.083Z,101971.63
2023-01-22T18:04:59.255Z,101973.05
2023-01-22T18:07:27.419Z,101971.80
2023-01-22T18:09:55.795Z,101973.20
2023-01-22T18:12:26.406Z,101975.15
2023-01-22T18:14:55.263Z,101974.30
2023-01-22T18:17:25.234Z,101978.29
2023-01-22T18:19:53.938Z,101980.77
2023-01-22T18:22:24.784Z,101983.89
2023-01-22T18:24:54.366Z,101982.63
2023-01-22T18:27:24.447Z,101983.11
2023-01-22T18:29:53.122Z,101980.10
2023-01-22T18:32:21.793Z,101982.14
2023-01-22T18:34:49.915Z,101986.98
2023-01-22T18:37:18.704Z,101989.79
2023-01-22T18:39:47.589Z,101992.77
2023-01-22T18:42:16.987Z,101987.42
2023-01-22T18:44:45.582Z,101984.57
2023-01-22T18:47:13.804Z,101988.67
2023-01-22T18:49:42.159Z,101989.44
2023-01-22T18:52:10.391Z,101990.32
2023-01-22T18:54:38.567Z,101993.76
2023-01-22T18:57:06.773Z,101988.79
2023-01-22T18:59:34.975Z,101986.20
2023-01-22T19:02:03.165Z,101985.84
2023-01-22T19:04:31.381Z,101988.24
2023-01-22T19:07:01.119Z,101992.27
2023-01-22T19:09:31.850Z,101993.14
2023-01-22T19:12:00.052Z,101995.40
2023-01-22T19:14:29.037Z,101996.20
2023-01-22T19:16:57.599Z,102001.33
2023-01-22T19:19:27.359Z,102004.48
2023-01-22T19:21:56.261Z,102014.92
2023-01-22T19:24:28.087Z,102019.52
2023-01-22T19:26:57.780Z,102024.73
2023-01-22T19:29:27.086Z,102026.42
2023-01-22T19:31:57.428Z,102027.70
2023-01-22T19:34:27.639Z,102025.02
2023-01-22T19:37:01.435Z,102028.84
2023-01-22T19:39:31.085Z,102034.36
2023-01-22T19:42:05.276Z,102033.70
2023-01-22T19:44:35.709Z,102036.72
2023-01-22T19:47:04.406Z,102039.02
2023-01-22T19:49:32.464Z,102036.06
2023-01-22T19:52:01.476Z,102035.96
2023-01-22T19:54:29.976Z,102037.59
2023-01-22T19:57:13.014Z,102034.19
2023-01-22T19:59:46.326Z,102031.61
2023-01-22T20:02:15.031Z,102032.10
2023-01-22T20:04:43.451Z,102030.95
2023-01-22T20:07:15.735Z,102032.16
2023-01-22T20:09:51.388Z,102032.15
2023-01-22T20:12:19.851Z,102031.77
2023-01-22T20:14:48.169Z,102032.70
2023-01-22T20:17:16.951Z,102033.37
2023-01-22T20:19:45.335Z,102032.88
2023-01-22T20:22:14.856Z,102039.09
2023-01-22T20:24:45.450Z,102041.58
2023-01-22T20:27:14.381Z,102041.87
2023-01-22T20:29:42.704Z,102038.30
2023-01-22T20:32:10.980Z,102039.53
2023-01-22T20:34:42.120Z,102039.61
2023-01-22T20:37:10.206Z,102035.44
2023-01-22T20:39:38.425Z,102033.55
2023-01-22T20:42:06.727Z,102029.75
2023-01-22T20:44:35.746Z,102031.30
2023-01-22T20:47:04.172Z,102033.27
2023-01-22T20:49:33.789Z,102033.06
2023-01-22T20:52:13.054Z,102033.99
2023-01-22T20:54:54.972Z,102034.66
2023-01-22T20:57:30.818Z,102039.80
2023-01-22T20:59:59.183Z,102040.25
2023-01-22T21:02:27.429Z,102044.67
2023-01-22T21:04:56.904Z,102048.68
2023-01-22T21:07:25.121Z,102051.43
2023-01-22T21:09:53.197Z,102050.45
2023-01-22T21:12:21.332Z,102052.30
2023-01-22T21:14:55.174Z,102048.02
2023-01-22T21:17:24.032Z,102046.05
2023-01-22T21:19:52.873Z,102047.19
2023-01-22T21:22:21.000Z,102050.67
2023-01-22T21:24:50.571Z,102051.90
2023-01-22T21:27:18.974Z,102049.69
2023-01-22T21:29:47.848Z,102047.96
2023-01-22T21:32:16.764Z,102048.98
2023-01-22T21:34:46.752Z,102051.20
2023-01-22T21:37:15.914Z,102049.86
2023-01-22T21:39:45.351Z,102049.30
2023-01-22T21:42:33.256Z,102051.35
2023-01-22T21:45:20.425Z,102047.64
2023-01-22T21:47:49.429Z,102046.34
2023-01-22T21:50:18.241Z,102047.92
2023-01-22T21:52:49.109Z,102046.40
2023-01-22T21:55:19.262Z,102051.23
2023-01-22T21:57:48.388Z,102052.84
2023-01-22T22:00:19.200Z,102053.84
2023-01-22T22:02:48.215Z,102060.27
2023-01-22T22:05:16.863Z,102064.39
2023-01-22T22:07:46.023Z,102065.74
2023-01-22T22:10:15.771Z,102065.30
2023-01-22T22:12:44.191Z,102070.01
2023-01-22T22:15:12.621Z,102072.36
2023-01-22T22:17:40.996Z,102074.06
2023-01-22T22:20:10.904Z,102078.50
2023-01-22T22:22:40.074Z,102079.57
2023-01-22T22:25:08.841Z,102085.05
2023-01-22T22:27:38.097Z,102087.28
2023-01-22T22:30:07.309Z,102082.48
2023-01-22T22:32:36.009Z,102082.44
2023-01-22T22:35:04.484Z,102087.39
2023-01-22T22:37:33.403Z,102085.61
2023-01-22T22:40:01.613Z,102086.13
2023-01-22T22:42:30.657Z,102088.98
2023-01-22T22:44:59.971Z,102085.45
2023-01-22T22:47:29.246Z,102085.67
2023-01-22T22:49:58.527Z,102081.29
2023-01-22T22:52:26.909Z,102078.75
2023-01-22T22:54:56.026Z,102074.46
2023-01-22T22:57:25.240Z,102074.15
2023-01-22T22:59:54.162Z,102076.60
2023-01-22T23:02:22.604Z,102079.46
2023-01-22T23:04:51.549Z,102079.06
2023-01-22T23:07:20.584Z,102083.34
2023-01-22T23:09:49.506Z,102088.59
2023-01-22T23:12:18.551Z,102088.46
2023-01-22T23:14:47.436Z,102093.13
2023-01-22T23:17:16.770Z,102096.43
2023-01-22T23:19:45.629Z,102097.86
2023-01-22T23:22:17.762Z,102100.49
2023-01-22T23:24:47.464Z,102098.77
2023-01-22T23:27:16.496Z,102098.42
2023-01-22T23:29:45.730Z,102091.00
2023-01-22T23:32:17.539Z,102089.48
2023-01-22T23:34:46.190Z,102089.16
2023-01-22T23:37:15.097Z,102096.86
2023-01-22T23:39:46.004Z,102093.29
2023-01-22T23:42:14.960Z,102096.45
2023-01-22T23:44:46.556Z,102094.64
2023-01-22T23:47:17.880Z,102098.33
2023-01-22T23:49:47.060Z,102096.23
2023-01-22T23:52:15.917Z,102099.90
2023-01-22T23:54:46.993Z,102105.19
2023-01-22T23:57:16.213Z,102110.61
2023-01-22T23:59:45.291Z,102114.23
